createdAt,value
2017-08-17T00:01:04.833Z,0
2017-08-17T00:02:15.111Z,0
2017-08-17T00:03:25.396Z,0
2017-08-17T00:04:35.666Z,0
2017-08-17T00:05:45.957Z,0
2017-08-17T00:06:56.238Z,0
2017-08-17T00:08:06.195Z,0
2017-08-17T00:09:16.468Z,0
2017-08-17T00:10:26.743Z,0
2017-08-17T00:11:36.701Z,0
2017-08-17T00:12:46.971Z,0
2017-08-17T00:13:56.613Z,0
2017-08-17T00:15:06.885Z,0
2017-08-17T00:16:17.166Z,0
2017-08-17T00:17:27.444Z,0
2017-08-17T00:18:37.718Z,0
2017-08-17T00:19:48.000Z,0
2017-08-17T00:20:58.424Z,0
2017-08-17T00:22:08.385Z,0
2017-08-17T00:23:18.654Z,0
2017-08-17T00:24:28.927Z,0
2017-08-17T00:25:38.909Z,0
2017-08-17T00:26:49.182Z,0
2017-08-17T00:27:59.152Z,0
2017-08-17T00:29:09.107Z,0
2017-08-17T00:30:19.066Z,0
2017-08-17T00:31:29.339Z,0
2017-08-17T00:32:38.987Z,0
2017-08-17T00:33:48.955Z,0
2017-08-17T00:34:59.230Z,0
2017-08-17T00:36:09.507Z,0
2017-08-17T00:37:19.463Z,0
2017-08-17T00:38:29.425Z,0
2017-08-17T00:39:39.707Z,0
2017-08-17T00:40:49.986Z,0
2017-08-17T00:41:59.941Z,0
2017-08-17T00:43:09.593Z,0
2017-08-17T00:44:19.550Z,0
2017-08-17T00:45:29.822Z,0
2017-08-17T00:46:39.781Z,0
2017-08-17T00:47:49.424Z,0
2017-08-17T00:48:59.693Z,0
2017-08-17T00:50:09.656Z,0
2017-08-17T00:51:19.611Z,0
2017-08-17T00:52:29.887Z,0
2017-08-17T00:53:40.164Z,0
2017-08-17T00:54:50.120Z,0
2017-08-17T00:56:00.395Z,0
2017-08-17T00:57:10.686Z,0
2017-08-17T00:58:20.643Z,0
2017-08-17T00:59:30.598Z,0
2017-08-17T01:00:40.870Z,0
2017-08-17T01:01:51.142Z,0
2017-08-17T01:03:01.101Z,0
2017-08-17T01:04:11.380Z,0
2017-08-17T01:05:21.338Z,0
2017-08-17T01:06:31.608Z,0
2017-08-17T01:07:41.878Z,0
2017-08-17T01:08:51.838Z,0
2017-08-17T01:10:01.479Z,0
2017-08-17T01:11:11.752Z,0
2017-08-17T01:12:21.393Z,0
2017-08-17T01:13:31.352Z,0
2017-08-17T01:14:41.653Z,0
2017-08-17T01:15:51.926Z,0
2017-08-17T01:17:02.199Z,0
2017-08-17T01:18:11.843Z,0
2017-08-17T01:19:21.484Z,0
2017-08-17T01:20:31.451Z,0
2017-08-17T01:21:41.410Z,0
2017-08-17T01:22:51.370Z,0
2017-08-17T01:24:01.644Z,0
2017-08-17T01:25:11.599Z,0
2017-08-17T01:26:21.878Z,0
2017-08-17T01:27:31.835Z,0
2017-08-17T01:28:42.122Z,0
2017-08-17T01:29:52.392Z,0
2017-08-17T01:31:02.671Z,0
2017-08-17T01:32:12.635Z,0
2017-08-17T01:33:22.590Z,0
2017-08-17T01:34:32.554Z,0
2017-08-17T01:35:42.510Z,0
2017-08-17T01:36:52.465Z,0
2017-08-17T01:38:02.738Z,0
2017-08-17T01:39:13.019Z,0
2017-08-17T01:40:22.976Z,0
2017-08-17T01:41:32.934Z,0
2017-08-17T01:42:42.890Z,0
2017-08-17T01:43:53.162Z,0
2017-08-17T01:45:03.432Z,0
2017-08-17T01:46:13.394Z,0
2017-08-17T01:47:23.676Z,0
2017-08-17T01:48:33.319Z,0
2017-08-17T01:49:43.276Z,0
2017-08-17T01:50:53.564Z,0
2017-08-17T01:52:03.837Z,0
2017-08-17T01:53:14.110Z,0
2017-08-17T01:54:24.381Z,0
2017-08-17T01:55:34.022Z,0
2017-08-17T01:56:43.975Z,0
2017-08-17T01:57:54.249Z,0
2017-08-17T01:59:04.208Z,0
2017-08-17T02:00:14.167Z,0
2017-08-17T02:01:24.442Z,0
2017-08-17T02:02:34.082Z,0
2017-08-17T02:03:44.350Z,0
2017-08-17T02:04:54.619Z,0
2017-08-17T02:06:04.892Z,0
2017-08-17T02:07:15.171Z,0
2017-08-17T02:08:25.444Z,0
2017-08-17T02:09:35.403Z,0
2017-08-17T02:10:45.044Z,0
2017-08-17T02:11:55.318Z,0
2017-08-17T02:13:05.590Z,0
2017-08-17T02:14:15.862Z,0
2017-08-17T02:15:25.191Z,0
2017-08-17T02:16:35.463Z,0
2017-08-17T02:17:45.421Z,0
2017-08-17T02:18:55.696Z,0
2017-08-17T02:20:05.345Z,0
2017-08-17T02:21:15.300Z,0
2017-08-17T02:22:25.264Z,0
2017-08-17T02:23:34.589Z,0
2017-08-17T02:24:44.864Z,0
2017-08-17T02:25:54.824Z,0
2017-08-17T02:27:05.099Z,0
2017-08-17T02:28:15.055Z,0
2017-08-17T02:29:24.699Z,0
2017-08-17T02:30:34.977Z,0
2017-08-17T02:31:44.622Z,0
2017-08-17T02:32:54.892Z,0
2017-08-17T02:34:05.160Z,0
2017-08-17T02:35:15.119Z,0
2017-08-17T02:36:25.392Z,0
2017-08-17T02:37:35.668Z,0
2017-08-17T02:38:45.631Z,0
2017-08-17T02:39:55.596Z,0
2017-08-17T02:41:05.873Z,0
2017-08-17T02:42:16.151Z,0
2017-08-17T02:43:25.480Z,0
2017-08-17T02:44:35.755Z,0
2017-08-17T02:45:46.034Z,0
2017-08-17T02:46:56.308Z,4
2017-08-17T02:48:06.582Z,4
2017-08-17T02:49:16.536Z,0
2017-08-17T02:50:26.817Z,0
2017-08-17T02:51:37.093Z,4
2017-08-17T02:52:47.376Z,4
2017-08-17T02:53:57.655Z,4
2017-08-17T02:55:07.613Z,4
2017-08-17T02:56:17.889Z,4
2017-08-17T02:57:28.160Z,4
2017-08-17T02:58:38.441Z,8
2017-08-17T02:59:48.720Z,4
2017-08-17T03:00:58.989Z,8
2017-08-17T03:02:08.948Z,8
2017-08-17T03:03:19.228Z,12
2017-08-17T03:04:28.873Z,12
2017-08-17T03:05:39.141Z,16
2017-08-17T03:06:49.101Z,16
2017-08-17T03:07:59.056Z,16
2017-08-17T03:09:09.324Z,24
2017-08-17T03:10:19.596Z,28
2017-08-17T03:11:29.867Z,28
2017-08-17T03:12:40.169Z,32
2017-08-17T03:13:50.440Z,36
2017-08-17T03:15:00.709Z,44
2017-08-17T03:16:10.981Z,44
2017-08-17T03:17:20.935Z,48
2017-08-17T03:18:30.889Z,56
2017-08-17T03:19:40.525Z,64
2017-08-17T03:20:50.793Z,68
2017-08-17T03:22:00.432Z,76
2017-08-17T03:23:10.702Z,84
2017-08-17T03:24:20.662Z,92
2017-08-17T03:25:30.933Z,100
2017-08-17T03:26:41.205Z,108
2017-08-17T03:27:51.478Z,116
2017-08-17T03:29:01.748Z,124
2017-08-17T03:30:12.025Z,136
2017-08-17T03:31:22.006Z,148
2017-08-17T03:32:32.277Z,160
2017-08-17T03:33:42.556Z,172
2017-08-17T03:34:52.511Z,184
2017-08-17T03:36:02.466Z,196
2017-08-17T03:37:12.735Z,208
2017-08-17T03:38:22.702Z,224
2017-08-17T03:39:32.974Z,240
2017-08-17T03:40:42.928Z,252
2017-08-17T03:41:53.196Z,272
2017-08-17T03:43:03.155Z,288
2017-08-17T03:44:13.432Z,304
2017-08-17T03:45:23.405Z,320
2017-08-17T03:46:33.674Z,336
2017-08-17T03:47:43.945Z,364
2017-08-17T03:48:54.213Z,400
2017-08-17T03:50:04.174Z,436
2017-08-17T03:51:14.135Z,464
2017-08-17T03:52:24.406Z,492
2017-08-17T03:53:34.362Z,520
2017-08-17T03:54:44.327Z,552
2017-08-17T03:55:54.593Z,584
2017-08-17T03:57:04.871Z,616
2017-08-17T03:58:14.826Z,640
2017-08-17T03:59:24.465Z,680
2017-08-17T04:00:34.435Z,716
2017-08-17T04:01:44.735Z,752
2017-08-17T04:02:54.716Z,772
2017-08-17T04:04:04.990Z,788
2017-08-17T04:05:14.954Z,804
2017-08-17T04:06:25.230Z,816
2017-08-17T04:07:35.185Z,824
2017-08-17T04:08:45.457Z,824
2017-08-17T04:09:55.729Z,836
2017-08-17T04:11:05.373Z,828
2017-08-17T04:12:15.346Z,820
2017-08-17T04:13:25.617Z,832
2017-08-17T04:14:35.888Z,872
2017-08-17T04:15:46.156Z,884
2017-08-17T04:16:56.425Z,888
2017-08-17T04:18:06.694Z,888
2017-08-17T04:19:16.965Z,908
2017-08-17T04:20:27.247Z,928
2017-08-17T04:21:37.519Z,948
2017-08-17T04:22:47.478Z,984
2017-08-17T04:23:57.745Z,996
2017-08-17T04:25:08.018Z,1000
2017-08-17T04:26:18.294Z,1016
2017-08-17T04:27:28.248Z,1032
2017-08-17T04:28:38.522Z,1032
2017-08-17T04:29:48.796Z,1048
2017-08-17T04:30:59.067Z,1084
2017-08-17T04:32:09.354Z,1088
2017-08-17T04:33:19.627Z,1092
2017-08-17T04:34:29.903Z,1116
2017-08-17T04:35:39.856Z,1156
2017-08-17T04:36:50.126Z,1200
2017-08-17T04:38:00.083Z,1228
2017-08-17T04:39:10.356Z,1264
2017-08-17T04:40:20.629Z,1304
2017-08-17T04:41:30.903Z,1380
2017-08-17T04:42:40.856Z,1456
2017-08-17T04:43:51.134Z,1504
2017-08-17T04:45:01.407Z,1560
2017-08-17T04:46:11.677Z,1612
2017-08-17T04:47:21.950Z,1692
2017-08-17T04:48:31.929Z,1808
2017-08-17T04:49:42.203Z,1888
2017-08-17T04:50:52.156Z,1968
2017-08-17T04:52:02.119Z,1996
2017-08-17T04:53:12.076Z,2076
2017-08-17T04:54:21.404Z,2144
2017-08-17T04:55:31.675Z,2212
2017-08-17T04:56:41.949Z,2328
2017-08-17T04:57:52.222Z,2348
2017-08-17T04:59:02.491Z,2396
2017-08-17T05:00:12.461Z,2628
2017-08-17T05:01:22.728Z,2784
2017-08-17T05:02:32.368Z,2872
2017-08-17T05:03:42.324Z,2944
2017-08-17T05:04:52.598Z,2720
2017-08-17T05:06:02.556Z,2672
2017-08-17T05:07:12.512Z,2780
2017-08-17T05:08:21.840Z,2744
2017-08-17T05:09:32.115Z,2660
2017-08-17T05:10:42.386Z,2716
2017-08-17T05:11:52.028Z,2756
2017-08-17T05:13:02.311Z,2796
2017-08-17T05:14:12.580Z,2836
2017-08-17T05:15:22.852Z,2860
2017-08-17T05:16:33.131Z,2868
2017-08-17T05:17:43.400Z,2884
2017-08-17T05:18:53.676Z,2892
2017-08-17T05:20:03.634Z,2908
2017-08-17T05:21:13.905Z,2908
2017-08-17T05:22:23.860Z,2788
2017-08-17T05:23:33.818Z,2672
2017-08-17T05:24:43.780Z,2636
2017-08-17T05:25:54.055Z,2640
2017-08-17T05:27:04.337Z,2744
2017-08-17T05:28:14.297Z,2764
2017-08-17T05:29:24.255Z,2732
2017-08-17T05:30:34.534Z,2700
2017-08-17T05:31:44.529Z,2544
2017-08-17T05:32:54.803Z,2548
2017-08-17T05:34:05.072Z,2552
2017-08-17T05:35:15.033Z,2460
2017-08-17T05:36:25.317Z,2408
2017-08-17T05:37:35.587Z,2468
2017-08-17T05:38:45.858Z,2468
2017-08-17T05:39:56.142Z,2588
2017-08-17T05:41:06.100Z,2812
2017-08-17T05:42:16.368Z,2588
2017-08-17T05:43:26.068Z,2720
2017-08-17T05:44:36.025Z,2956
2017-08-17T05:45:46.300Z,2820
2017-08-17T05:46:56.257Z,2780
2017-08-17T05:48:05.898Z,2856
2017-08-17T05:49:16.170Z,2836
2017-08-17T05:50:25.823Z,2872
2017-08-17T05:51:35.786Z,2904
2017-08-17T05:52:46.062Z,2944
2017-08-17T05:53:56.020Z,3016
2017-08-17T05:55:05.661Z,2972
2017-08-17T05:56:15.619Z,2956
2017-08-17T05:57:25.580Z,3044
2017-08-17T05:58:35.548Z,3064
2017-08-17T05:59:45.828Z,3092
2017-08-17T06:00:56.103Z,3060
2017-08-17T06:02:06.378Z,3020
2017-08-17T06:03:16.333Z,3004
2017-08-17T06:04:26.606Z,3036
2017-08-17T06:05:36.883Z,3124
2017-08-17T06:06:47.157Z,3116
2017-08-17T06:07:57.434Z,3108
2017-08-17T06:09:07.709Z,3108
2017-08-17T06:10:17.983Z,3268
2017-08-17T06:11:28.264Z,3196
2017-08-17T06:12:38.542Z,3120
2017-08-17T06:13:48.813Z,3104
2017-08-17T06:14:59.084Z,2840
2017-08-17T06:16:09.372Z,2824
2017-08-17T06:17:19.648Z,2812
2017-08-17T06:18:29.933Z,2700
2017-08-17T06:19:39.889Z,2708
2017-08-17T06:20:50.160Z,2664
2017-08-17T06:22:00.434Z,2684
2017-08-17T06:23:10.747Z,2648
2017-08-17T06:24:21.025Z,2636
2017-08-17T06:25:30.989Z,2616
2017-08-17T06:26:41.257Z,2624
2017-08-17T06:27:51.516Z,2632
2017-08-17T06:29:01.785Z,2668
2017-08-17T06:30:12.052Z,2712
2017-08-17T06:31:22.311Z,2748
2017-08-17T06:32:32.260Z,2784
2017-08-17T06:33:42.526Z,2880
2017-08-17T06:34:52.809Z,2904
2017-08-17T06:36:03.094Z,2872
2017-08-17T06:37:12.420Z,2880
2017-08-17T06:38:22.693Z,2908
2017-08-17T06:39:32.966Z,2940
2017-08-17T06:40:43.247Z,2964
2017-08-17T06:41:53.204Z,3000
2017-08-17T06:43:03.166Z,3064
2017-08-17T06:44:13.440Z,3200
2017-08-17T06:45:23.719Z,3368
2017-08-17T06:46:33.991Z,3388
2017-08-17T06:47:43.634Z,3364
2017-08-17T06:48:53.925Z,3400
2017-08-17T06:50:04.223Z,3376
2017-08-17T06:51:14.519Z,3408
2017-08-17T06:52:24.796Z,3544
2017-08-17T06:53:34.753Z,3976
2017-08-17T06:54:45.027Z,4456
2017-08-17T06:55:54.987Z,4508
2017-08-17T06:57:04.950Z,4540
2017-08-17T06:58:14.276Z,4788
2017-08-17T06:59:24.549Z,4952
2017-08-17T07:00:34.842Z,4880
2017-08-17T07:01:44.807Z,4972
2017-08-17T07:02:55.079Z,4988
2017-08-17T07:04:05.607Z,5084
2017-08-17T07:05:15.566Z,5316
2017-08-17T07:06:25.840Z,5824
2017-08-17T07:07:36.117Z,6484
2017-08-17T07:08:46.399Z,6976
2017-08-17T07:09:56.672Z,7292
2017-08-17T07:11:06.329Z,7356
2017-08-17T07:12:16.290Z,7144
2017-08-17T07:13:26.563Z,7288
2017-08-17T07:14:36.840Z,7200
2017-08-17T07:15:46.802Z,6928
2017-08-17T07:16:57.084Z,6904
2017-08-17T07:18:07.364Z,6968
2017-08-17T07:19:17.326Z,7036
2017-08-17T07:20:27.299Z,7144
2017-08-17T07:21:37.576Z,6652
2017-08-17T07:22:47.868Z,6908
2017-08-17T07:23:57.826Z,6752
2017-08-17T07:25:07.895Z,6608
2017-08-17T07:26:18.173Z,6256
2017-08-17T07:27:27.501Z,6728
2017-08-17T07:28:37.776Z,7168
2017-08-17T07:29:47.738Z,7856
2017-08-17T07:30:58.013Z,8624
2017-08-17T07:32:07.974Z,8484
2017-08-17T07:33:17.936Z,7984
2017-08-17T07:34:27.905Z,7280
2017-08-17T07:35:38.183Z,7252
2017-08-17T07:36:48.143Z,7380
2017-08-17T07:37:58.421Z,8080
2017-08-17T07:39:08.703Z,8356
2017-08-17T07:40:18.977Z,9252
2017-08-17T07:41:28.935Z,9612
2017-08-17T07:42:38.580Z,9420
2017-08-17T07:43:48.544Z,9048
2017-08-17T07:44:58.822Z,7968
2017-08-17T07:46:09.096Z,7108
2017-08-17T07:47:18.744Z,6852
2017-08-17T07:48:29.020Z,7456
2017-08-17T07:49:39.296Z,7908
2017-08-17T07:50:49.573Z,8868
2017-08-17T07:51:59.848Z,8408
2017-08-17T07:53:10.119Z,7876
2017-08-17T07:54:20.398Z,8000
2017-08-17T07:55:30.674Z,9428
2017-08-17T07:56:40.634Z,10440
2017-08-17T07:57:50.920Z,10544
2017-08-17T07:59:01.196Z,10240
2017-08-17T08:00:11.472Z,9924
2017-08-17T08:01:21.765Z,9776
2017-08-17T08:02:31.728Z,9960
2017-08-17T08:03:42.001Z,10132
2017-08-17T08:04:52.279Z,10324
2017-08-17T08:06:02.244Z,9752
2017-08-17T08:07:12.213Z,9816
2017-08-17T08:08:22.500Z,9336
2017-08-17T08:09:32.776Z,8220
2017-08-17T08:10:43.057Z,7284
2017-08-17T08:11:52.733Z,6632
2017-08-17T08:13:03.009Z,6664
2017-08-17T08:14:12.756Z,6792
2017-08-17T08:15:23.036Z,7068
2017-08-17T08:16:33.319Z,6680
2017-08-17T08:17:43.592Z,7808
2017-08-17T08:18:53.887Z,9040
2017-08-17T08:20:03.850Z,9432
2017-08-17T08:21:13.519Z,10140
2017-08-17T08:22:23.798Z,10196
2017-08-17T08:23:34.072Z,10444
2017-08-17T08:24:44.057Z,10656
2017-08-17T08:25:54.340Z,9928
2017-08-17T08:27:04.642Z,9356
2017-08-17T08:28:14.915Z,9520
2017-08-17T08:29:24.879Z,9540
2017-08-17T08:30:34.840Z,10060
2017-08-17T08:31:48.474Z,10692
2017-08-17T08:32:58.752Z,10876
2017-08-17T08:34:08.740Z,11404
2017-08-17T08:35:19.018Z,10760
2017-08-17T08:36:28.984Z,10836
2017-08-17T08:37:39.262Z,10264
2017-08-17T08:38:49.228Z,10596
2017-08-17T08:39:59.534Z,10576
2017-08-17T08:41:09.501Z,9380
2017-08-17T08:42:19.461Z,8812
2017-08-17T08:43:29.422Z,8800
2017-08-17T08:44:39.382Z,9836
2017-08-17T08:45:49.821Z,10888
2017-08-17T08:46:59.791Z,10996
2017-08-17T08:48:10.070Z,11720
2017-08-17T08:49:20.347Z,12368
2017-08-17T08:50:30.629Z,12852
2017-08-17T08:51:40.593Z,12868
2017-08-17T08:52:50.871Z,12160
2017-08-17T08:54:00.520Z,13276
2017-08-17T08:55:10.171Z,13268
2017-08-17T08:56:20.453Z,10280
2017-08-17T08:57:30.418Z,8608
2017-08-17T08:58:40.381Z,8360
2017-08-17T08:59:50.027Z,8652
2017-08-17T09:00:59.676Z,9536
2017-08-17T09:02:09.957Z,8992
2017-08-17T09:03:19.930Z,7924
2017-08-17T09:04:29.894Z,8072
2017-08-17T09:05:40.174Z,9500
2017-08-17T09:06:49.819Z,10084
2017-08-17T09:07:59.783Z,10244
2017-08-17T09:09:10.062Z,10716
2017-08-17T09:10:20.024Z,10764
2017-08-17T09:11:29.993Z,10352
2017-08-17T09:12:40.268Z,10048
2017-08-17T09:13:50.233Z,9672
2017-08-17T09:15:00.202Z,10356
2017-08-17T09:16:09.849Z,9856
2017-08-17T09:17:19.808Z,8948
2017-08-17T09:18:29.771Z,9232
2017-08-17T09:19:40.050Z,8968
2017-08-17T09:20:50.328Z,9124
2017-08-17T09:22:00.601Z,9000
2017-08-17T09:23:10.880Z,9520
2017-08-17T09:24:20.524Z,10300
2017-08-17T09:25:30.803Z,10560
2017-08-17T09:26:41.085Z,10704
2017-08-17T09:27:51.374Z,10072
2017-08-17T09:29:01.653Z,8992
2017-08-17T09:30:11.617Z,8744
2017-08-17T09:31:21.271Z,10812
2017-08-17T09:32:31.238Z,10604
2017-08-17T09:33:41.517Z,9944
2017-08-17T09:34:51.791Z,10592
2017-08-17T09:36:01.757Z,10952
2017-08-17T09:37:12.038Z,9940
2017-08-17T09:38:22.314Z,9636
2017-08-17T09:39:32.596Z,9876
2017-08-17T09:40:42.874Z,10136
2017-08-17T09:41:52.856Z,10756
2017-08-17T09:43:03.132Z,10616
2017-08-17T09:44:13.107Z,9664
2017-08-17T09:45:22.765Z,9080
2017-08-17T09:46:32.741Z,9552
2017-08-17T09:47:42.737Z,9020
2017-08-17T09:48:52.706Z,9696
2017-08-17T09:50:02.982Z,9900
2017-08-17T09:51:12.945Z,8316
2017-08-17T09:52:23.227Z,7560
2017-08-17T09:53:32.564Z,7884
2017-08-17T09:54:42.216Z,7056
2017-08-17T09:55:52.181Z,6736
2017-08-17T09:57:02.460Z,7948
2017-08-17T09:58:12.735Z,8228
2017-08-17T09:59:22.698Z,9068
2017-08-17T10:00:32.663Z,9340
2017-08-17T10:01:42.656Z,9868
2017-08-17T10:02:52.618Z,9912
2017-08-17T10:04:02.902Z,9564
2017-08-17T10:05:12.556Z,8948
2017-08-17T10:06:22.523Z,8848
2017-08-17T10:07:32.172Z,8972
2017-08-17T10:08:42.449Z,9504
2017-08-17T10:09:52.728Z,10376
2017-08-17T10:11:02.693Z,10264
2017-08-17T10:12:12.971Z,9988
2017-08-17T10:13:23.260Z,10052
2017-08-17T10:14:33.221Z,9852
2017-08-17T10:15:43.191Z,10892
2017-08-17T10:16:53.158Z,9944
2017-08-17T10:18:03.434Z,9780
2017-08-17T10:19:13.397Z,9348
2017-08-17T10:20:23.366Z,9276
2017-08-17T10:21:33.331Z,9096
2017-08-17T10:22:43.608Z,8896
2017-08-17T10:23:53.576Z,9256
2017-08-17T10:25:03.539Z,9004
2017-08-17T10:26:13.824Z,9260
2017-08-17T10:27:23.478Z,8516
2017-08-17T10:28:33.133Z,8448
2017-08-17T10:29:43.422Z,8640
2017-08-17T10:30:53.700Z,9044
2017-08-17T10:32:03.037Z,9532
2017-08-17T10:33:13.001Z,10328
2017-08-17T10:34:22.965Z,9800
2017-08-17T10:35:33.241Z,10396
2017-08-17T10:36:43.206Z,9736
2017-08-17T10:37:53.188Z,9636
2017-08-17T10:39:03.156Z,10720
2017-08-17T10:40:13.128Z,10436
2017-08-17T10:41:23.108Z,11004
2017-08-17T10:42:33.393Z,10352
2017-08-17T10:43:43.681Z,10544
2017-08-17T10:44:53.659Z,10716
2017-08-17T10:46:03.947Z,10944
2017-08-17T10:47:13.911Z,11072
2017-08-17T10:48:23.564Z,11020
2017-08-17T10:49:33.223Z,10724
2017-08-17T10:50:43.187Z,11204
2017-08-17T10:51:52.839Z,12516
2017-08-17T10:53:03.118Z,13396
2017-08-17T10:54:13.401Z,13352
2017-08-17T10:55:22.745Z,12824
2017-08-17T10:56:32.395Z,12696
2017-08-17T10:57:42.674Z,13524
2017-08-17T10:58:52.980Z,14056
2017-08-17T11:00:03.261Z,14596
2017-08-17T11:01:13.340Z,14508
2017-08-17T11:02:23.731Z,13136
2017-08-17T11:03:33.697Z,12328
2017-08-17T11:04:43.973Z,12184
2017-08-17T11:05:53.943Z,12448
2017-08-17T11:07:04.219Z,13040
2017-08-17T11:08:14.496Z,14384
2017-08-17T11:09:24.780Z,14372
2017-08-17T11:10:35.059Z,13072
2017-08-17T11:11:45.348Z,12360
2017-08-17T11:12:55.314Z,12144
2017-08-17T11:14:05.281Z,12284
2017-08-17T11:15:14.936Z,13900
2017-08-17T11:16:25.222Z,15540
2017-08-17T11:17:35.520Z,14800
2017-08-17T11:18:44.861Z,16096
2017-08-17T11:19:55.152Z,16448
2017-08-17T11:21:05.140Z,16384
2017-08-17T11:22:15.106Z,16320
2017-08-17T11:23:25.392Z,16768
2017-08-17T11:24:35.359Z,17632
2017-08-17T11:25:45.644Z,17792
2017-08-17T11:26:55.632Z,19776
2017-08-17T11:28:05.595Z,32032
2017-08-17T11:29:15.560Z,40288
2017-08-17T11:30:25.839Z,40288
2017-08-17T11:31:36.131Z,40576
2017-08-17T11:32:46.347Z,37280
2017-08-17T11:33:56.627Z,40352
2017-08-17T11:35:06.601Z,25888
2017-08-17T11:36:16.882Z,16928
2017-08-17T11:37:26.850Z,18304
2017-08-17T11:38:36.816Z,19904
2017-08-17T11:39:47.096Z,42560
2017-08-17T11:40:57.383Z,43296
2017-08-17T11:42:07.360Z,41184
2017-08-17T11:43:17.640Z,38880
2017-08-17T11:44:27.608Z,40256
2017-08-17T11:45:37.888Z,40928
2017-08-17T11:46:47.854Z,41440
2017-08-17T11:47:58.139Z,36416
2017-08-17T11:49:08.105Z,27904
2017-08-17T11:50:17.755Z,34464
2017-08-17T11:51:28.040Z,37248
2017-08-17T11:52:37.693Z,52960
2017-08-17T11:53:47.377Z,21216
2017-08-17T11:54:57.658Z,34688
2017-08-17T11:56:07.942Z,24800
2017-08-17T11:57:18.240Z,41824
2017-08-17T11:58:28.529Z,19008
2017-08-17T11:59:38.821Z,44928
2017-08-17T12:00:48.799Z,56672
2017-08-17T12:01:59.082Z,55776
2017-08-17T12:03:09.374Z,25312
2017-08-17T12:04:19.342Z,27904
2017-08-17T12:05:29.310Z,27296
2017-08-17T12:06:39.439Z,21408
2017-08-17T12:07:49.721Z,22944
2017-08-17T12:08:59.373Z,16192
2017-08-17T12:10:09.653Z,15740
2017-08-17T12:11:18.990Z,12820
2017-08-17T12:12:28.959Z,13608
2017-08-17T12:13:38.928Z,15624
2017-08-17T12:14:49.208Z,26464
2017-08-17T12:15:59.202Z,27328
2017-08-17T12:17:09.173Z,28160
2017-08-17T12:18:19.136Z,33920
2017-08-17T12:19:28.783Z,47616
2017-08-17T12:20:39.061Z,58560
2017-08-17T12:21:49.343Z,60032
2017-08-17T12:22:59.352Z,63840
2017-08-17T12:24:09.643Z,70976
2017-08-17T12:25:19.921Z,66336
2017-08-17T12:26:30.207Z,53952
2017-08-17T12:27:40.184Z,48288
2017-08-17T12:28:49.841Z,32480
2017-08-17T12:29:59.833Z,28576
2017-08-17T12:31:10.114Z,38240
2017-08-17T12:32:20.393Z,41632
2017-08-17T12:33:30.051Z,59936
2017-08-17T12:34:40.350Z,48544
2017-08-17T12:35:50.317Z,44864
2017-08-17T12:37:00.283Z,37984
2017-08-17T12:38:10.250Z,33088
2017-08-17T12:39:20.219Z,33824
2017-08-17T12:40:30.512Z,36576
2017-08-17T12:41:40.285Z,40640
2017-08-17T12:42:50.565Z,29472
2017-08-17T12:44:00.854Z,20032
2017-08-17T12:45:10.824Z,21536
2017-08-17T12:46:20.809Z,28352
2017-08-17T12:47:31.113Z,34848
2017-08-17T12:48:41.087Z,39680
2017-08-17T12:49:51.059Z,47520
2017-08-17T12:51:01.338Z,35584
2017-08-17T12:52:11.615Z,23232
2017-08-17T12:53:21.901Z,21216
2017-08-17T12:54:31.552Z,20416
2017-08-17T12:55:41.835Z,43808
2017-08-17T12:56:52.117Z,21824
2017-08-17T12:58:02.081Z,18464
2017-08-17T12:59:11.730Z,16896
2017-08-17T13:00:21.693Z,17472
2017-08-17T13:01:31.657Z,20512
2017-08-17T13:02:41.630Z,38528
2017-08-17T13:03:51.615Z,48832
2017-08-17T13:05:01.580Z,47360
2017-08-17T13:06:11.545Z,29056
2017-08-17T13:07:21.197Z,20320
2017-08-17T13:08:31.169Z,24160
2017-08-17T13:09:41.451Z,50080
2017-08-17T13:10:51.736Z,54464
2017-08-17T13:12:01.702Z,57728
2017-08-17T13:13:11.671Z,43680
2017-08-17T13:14:21.012Z,20320
2017-08-17T13:15:31.290Z,18976
2017-08-17T13:16:41.579Z,15996
2017-08-17T13:17:51.866Z,13896
2017-08-17T13:19:02.146Z,11620
2017-08-17T13:20:12.118Z,9984
2017-08-17T13:21:21.781Z,9144
2017-08-17T13:22:32.061Z,8784
2017-08-17T13:23:42.346Z,10640
2017-08-17T13:24:51.680Z,15188
2017-08-17T13:26:01.650Z,11404
2017-08-17T13:27:11.612Z,12088
2017-08-17T13:28:21.256Z,11244
2017-08-17T13:29:31.221Z,10940
2017-08-17T13:30:41.187Z,10196
2017-08-17T13:31:51.468Z,9376
2017-08-17T13:33:01.436Z,8704
2017-08-17T13:34:11.715Z,8856
2017-08-17T13:35:21.680Z,9148
2017-08-17T13:36:31.956Z,9260
2017-08-17T13:37:41.919Z,8816
2017-08-17T13:38:51.579Z,8036
2017-08-17T13:40:01.225Z,7368
2017-08-17T13:41:11.509Z,7116
2017-08-17T13:42:21.156Z,7640
2017-08-17T13:43:31.117Z,12180
2017-08-17T13:44:41.098Z,10124
2017-08-17T13:45:51.378Z,10912
2017-08-17T13:47:01.358Z,12924
2017-08-17T13:48:11.324Z,16128
2017-08-17T13:49:21.296Z,26368
2017-08-17T13:50:31.252Z,21888
2017-08-17T13:51:40.905Z,22720
2017-08-17T13:52:51.191Z,25312
2017-08-17T13:54:01.467Z,25312
2017-08-17T13:55:11.427Z,22208
2017-08-17T13:56:21.084Z,21568
2017-08-17T13:57:31.362Z,20960
2017-08-17T13:58:41.324Z,22560
2017-08-17T13:59:51.599Z,21792
2017-08-17T14:01:01.876Z,22560
2017-08-17T14:02:11.838Z,21792
2017-08-17T14:03:21.801Z,21088
2017-08-17T14:04:32.075Z,20448
2017-08-17T14:05:42.349Z,19584
2017-08-17T14:06:52.624Z,19136
2017-08-17T14:08:02.922Z,18400
2017-08-17T14:09:12.891Z,18080
2017-08-17T14:10:22.863Z,17984
2017-08-17T14:11:32.822Z,18016
2017-08-17T14:12:42.790Z,17856
2017-08-17T14:13:53.070Z,17888
2017-08-17T14:15:03.032Z,18048
2017-08-17T14:16:12.993Z,19008
2017-08-17T14:17:22.992Z,20192
2017-08-17T14:18:32.955Z,21280
2017-08-17T14:19:42.922Z,22528
2017-08-17T14:20:52.885Z,24544
2017-08-17T14:22:03.163Z,24640
2017-08-17T14:23:13.131Z,24608
2017-08-17T14:24:23.096Z,25120
2017-08-17T14:25:33.058Z,21728
2017-08-17T14:26:42.703Z,24928
2017-08-17T14:27:52.987Z,25664
2017-08-17T14:29:03.272Z,25696
2017-08-17T14:30:12.921Z,25600
2017-08-17T14:31:22.572Z,24992
2017-08-17T14:32:32.537Z,25344
2017-08-17T14:33:42.815Z,23488
2017-08-17T14:34:52.148Z,23072
2017-08-17T14:36:02.426Z,22240
2017-08-17T14:37:12.075Z,20608
2017-08-17T14:38:21.721Z,18624
2017-08-17T14:39:31.368Z,17088
2017-08-17T14:40:41.327Z,15104
2017-08-17T14:41:51.293Z,14156
2017-08-17T14:43:01.262Z,13376
2017-08-17T14:44:11.552Z,12644
2017-08-17T14:45:21.825Z,11944
2017-08-17T14:46:32.102Z,11528
2017-08-17T14:47:42.073Z,11472
2017-08-17T14:48:52.364Z,11504
2017-08-17T14:50:02.638Z,11756
2017-08-17T14:51:12.604Z,11588
2017-08-17T14:52:22.565Z,11200
2017-08-17T14:53:32.213Z,10948
2017-08-17T14:54:42.497Z,10748
2017-08-17T14:55:52.457Z,10668
2017-08-17T14:57:02.731Z,10456
2017-08-17T14:58:12.693Z,10344
2017-08-17T14:59:22.970Z,10296
2017-08-17T15:00:32.931Z,10332
2017-08-17T15:01:43.230Z,10352
2017-08-17T15:02:52.878Z,10404
2017-08-17T15:04:02.850Z,10356
2017-08-17T15:05:12.557Z,10412
2017-08-17T15:06:22.202Z,10488
2017-08-17T15:07:32.161Z,10532
2017-08-17T15:08:42.130Z,10520
2017-08-17T15:09:52.403Z,10440
2017-08-17T15:11:02.371Z,10356
2017-08-17T15:12:12.338Z,10248
2017-08-17T15:13:22.304Z,10272
2017-08-17T15:14:32.580Z,10212
2017-08-17T15:15:42.233Z,10128
2017-08-17T15:16:51.879Z,10016
2017-08-17T15:18:02.161Z,9912
2017-08-17T15:19:12.436Z,9812
2017-08-17T15:20:22.092Z,9704
2017-08-17T15:21:31.750Z,9544
2017-08-17T15:22:41.081Z,9344
2017-08-17T15:23:51.354Z,9084
2017-08-17T15:25:01.634Z,8804
2017-08-17T15:26:11.927Z,8528
2017-08-17T15:27:21.259Z,8260
2017-08-17T15:28:31.538Z,8036
2017-08-17T15:29:41.498Z,7860
2017-08-17T15:30:51.143Z,7732
2017-08-17T15:32:01.414Z,7628
2017-08-17T15:33:11.687Z,7500
2017-08-17T15:34:21.336Z,7372
2017-08-17T15:35:31.637Z,7244
2017-08-17T15:36:41.916Z,7116
2017-08-17T15:37:54.195Z,6984
2017-08-17T15:39:04.491Z,6872
2017-08-17T15:40:14.460Z,6828
2017-08-17T15:41:24.419Z,6888
2017-08-17T15:42:34.377Z,7068
2017-08-17T15:43:44.336Z,7316